Time;durP1;ratioP1;P1;durP2;ratioP2;P2;SDS_P1;SDS_P2;PMS_P1;PMS_P2;Temp;Humidity;BMP_temperature;BMP_pressure;BME280_temperature;BME280_humidity;BME280_pressure;Samples;Min_cycle;Max_cycle;Signal;HPM_P1;HPM_P2
2022/12/29 00:01:26;;;;;;;1.00;0.68;;;16.80;52.90;;;;;;5065736;27;45193;-78
2022/12/29 00:03:53;;;;;;;0.50;0.50;;;16.80;52.90;;;;;;5065370;28;45257;-78
2022/12/29 00:06:22;;;;;;;0.60;0.60;;;16.90;52.90;;;;;;5065109;27;46584;-78
2022/12/29 00:08:49;;;;;;;1.95;0.63;;;16.90;53.00;;;;;;5065380;28;45220;-77
2022/12/29 00:11:17;;;;;;;0.60;0.60;;;16.90;52.90;;;;;;5065677;27;45199;-78
2022/12/29 00:16:29;;;;;;;1.15;0.70;;;16.90;52.90;;;;;;5062826;28;45209;-78
2022/12/29 00:18:56;;;;;;;0.40;0.40;;;16.90;52.90;;;;;;5062767;28;45356;-78
2022/12/29 00:35:12;;;;;;;0.73;0.57;;;16.90;52.90;;;;;;5062892;28;45197;-78
2022/12/29 00:46:06;;;;;;;0.80;0.80;;;16.90;53.00;;;;;;5072021;28;45287;-77
2022/12/29 00:51:19;;;;;;;0.70;0.70;;;16.90;53.00;;;;;;5063169;28;45296;-77
2022/12/29 00:53:45;;;;;;;0.60;0.60;;;16.90;53.00;;;;;;5065435;28;45293;-78
2022/12/29 00:56:12;;;;;;;0.63;0.50;;;16.90;53.00;;;;;;5065685;27;45233;-77
2022/12/29 00:58:39;;;;;;;0.60;0.60;;;16.90;52.90;;;;;;5063783;27;45531;-77
2022/12/29 01:01:07;;;;;;;0.70;0.70;;;16.90;52.90;;;;;;5064567;27;45309;-77
2022/12/29 01:03:35;;;;;;;0.57;0.55;;;17.00;53.00;;;;;;5065974;27;45223;-77
2022/12/29 01:06:02;;;;;;;0.70;0.70;;;16.90;53.00;;;;;;5066528;27;45400;-77
2022/12/29 01:08:29;;;;;;;0.68;0.60;;;17.00;53.00;;;;;;5065365;28;46395;-77
2022/12/29 01:10:58;;;;;;;0.60;0.60;;;17.00;53.00;;;;;;5065788;28;45263;-77
2022/12/29 01:13:25;;;;;;;0.80;0.70;;;16.90;52.90;;;;;;5065862;27;45144;-77
2022/12/29 01:15:52;;;;;;;0.43;0.43;;;17.00;52.90;;;;;;5065911;28;45262;-77
2022/12/29 01:18:19;;;;;;;0.50;0.50;;;17.00;53.00;;;;;;5065625;28;48647;-77
2022/12/29 01:20:47;;;;;;;0.65;0.65;;;17.00;53.00;;;;;;5065258;28;45365;-77
2022/12/29 01:23:14;;;;;;;0.75;0.75;;;17.00;53.10;;;;;;5065112;28;45233;-77
2022/12/29 01:25:41;;;;;;;1.08;0.75;;;17.00;53.00;;;;;;5065516;27;45213;-77
2022/12/29 01:28:08;;;;;;;0.73;0.63;;;17.00;52.90;;;;;;5064604;28;45645;-77
2022/12/29 01:30:35;;;;;;;0.57;0.52;;;17.00;53.00;;;;;;5064999;28;45289;-77
2022/12/29 01:33:02;;;;;;;1.55;0.60;;;17.00;52.90;;;;;;5065129;27;45294;-78
2022/12/29 01:35:29;;;;;;;1.95;0.90;;;17.00;53.00;;;;;;5065265;27;45457;-77
2022/12/29 01:37:57;;;;;;;1.13;0.68;;;17.00;53.00;;;;;;5065325;27;47657;-77
2022/12/29 01:40:24;;;;;;;0.50;0.50;;;17.00;53.00;;;;;;5065468;28;45176;-78
2022/12/29 01:42:50;;;;;;;0.47;0.47;;;17.00;53.00;;;;;;5064751;27;45403;-77
2022/12/29 01:45:17;;;;;;;0.93;0.50;;;17.00;53.00;;;;;;5065904;27;45300;-78
2022/12/29 01:47:45;;;;;;;0.57;0.57;;;17.00;53.00;;;;;;5065249;28;45483;-78
2022/12/29 01:50:13;;;;;;;0.47;0.47;;;17.00;53.00;;;;;;5064854;27;45203;-77
2022/12/29 01:52:43;;;;;;;1.55;0.57;;;17.00;53.00;;;;;;5064739;28;45327;-77
2022/12/29 01:55:11;;;;;;;0.68;0.68;;;17.00;53.00;;;;;;5065065;27;45469;-78
2022/12/29 01:57:39;;;;;;;0.50;0.50;;;17.00;53.00;;;;;;5064631;27;45459;-78
2022/12/29 02:00:08;;;;;;;0.70;0.70;;;17.00;52.90;;;;;;5065077;28;45263;-78
2022/12/29 02:02:34;;;;;;;0.50;0.50;;;17.00;52.90;;;;;;5064668;27;45280;-77
2022/12/29 02:05:03;;;;;;;0.60;0.60;;;17.00;53.00;;;;;;5064737;28;45186;-78
2022/12/29 02:07:30;;;;;;;1.02;0.60;;;17.00;53.00;;;;;;5064182;27;46394;-78
2022/12/29 02:09:57;;;;;;;0.70;0.70;;;17.00;53.00;;;;;;5063676;27;45255;-77
2022/12/29 02:12:25;;;;;;;0.55;0.50;;;17.00;53.00;;;;;;5064640;27;45319;-78
2022/12/29 02:14:54;;;;;;;0.70;0.70;;;17.00;53.00;;;;;;5064306;27;45443;-78
2022/12/29 02:17:23;;;;;;;0.60;0.60;;;17.00;53.00;;;;;;5063818;28;45297;-77
2022/12/29 02:20:16;;;;;;;0.60;0.60;;;17.00;53.00;;;;;;5064208;27;45325;-78
2022/12/29 02:22:46;;;;;;;0.50;0.50;;;17.00;53.00;;;;;;5064337;27;45271;-77
2022/12/29 02:25:36;;;;;;;0.50;0.50;;;17.00;53.10;;;;;;5064368;27;45402;-78
2022/12/29 02:28:30;;;;;;;0.70;0.70;;;17.00;53.10;;;;;;5063790;27;45227;-78
2022/12/29 02:31:03;;;;;;;0.65;0.50;;;17.10;53.10;;;;;;5063579;28;45275;-78
2022/12/29 02:33:36;;;;;;;0.70;0.65;;;17.10;53.10;;;;;;5063860;27;45256;-77
2022/12/29 02:36:08;;;;;;;0.55;0.47;;;17.00;53.00;;;;;;5064049;27;45135;-77
2022/12/29 02:38:45;;;;;;;1.08;0.70;;;17.10;53.10;;;;;;5063850;28;45483;-78
2022/12/29 02:41:15;;;;;;;0.85;0.52;;;17.10;53.10;;;;;;5061162;28;45181;-77
2022/12/29 02:43:46;;;;;;;0.70;0.70;;;17.10;53.10;;;;;;5063756;27;45220;-78
2022/12/29 02:46:20;;;;;;;0.52;0.52;;;17.10;53.10;;;;;;5063792;27;45461;-77
2022/12/29 02:48:48;;;;;;;0.70;0.70;;;17.10;53.10;;;;;;5063327;27;45277;-77
2022/12/29 02:51:18;;;;;;;0.30;0.30;;;17.10;53.10;;;;;;5063585;27;45200;-78
2022/12/29 02:56:29;;;;;;;0.50;0.50;;;17.00;53.00;;;;;;5061148;28;45312;-77
2022/12/29 02:58:56;;;;;;;0.63;0.60;;;17.00;53.00;;;;;;5063618;28;46300;-77
2022/12/29 03:01:30;;;;;;;0.60;0.60;;;17.10;53.10;;;;;;5063251;27;45145;-78
2022/12/29 03:04:07;;;;;;;0.52;0.50;;;17.10;53.10;;;;;;5063390;27;45209;-77
2022/12/29 03:06:39;;;;;;;0.57;0.50;;;17.10;53.10;;;;;;5063737;27;45379;-77
2022/12/29 03:09:12;;;;;;;0.95;0.45;;;17.10;53.10;;;;;;5063121;27;45278;-77
2022/12/29 03:17:22;;;;;;;0.57;0.50;;;17.10;53.10;;;;;;5063586;28;45316;-78
2022/12/29 03:19:49;;;;;;;0.60;0.50;;;17.10;53.10;;;;;;5062888;28;46724;-77
2022/12/29 03:22:27;;;;;;;0.50;0.50;;;17.10;53.10;;;;;;5063541;27;45383;-77
2022/12/29 03:24:57;;;;;;;0.55;0.55;;;17.10;53.10;;;;;;5066387;27;45282;-77
2022/12/29 03:27:26;;;;;;;0.70;0.70;;;17.10;53.10;;;;;;5066489;27;45406;-78
2022/12/29 03:29:54;;;;;;;0.68;0.60;;;17.10;53.10;;;;;;5066121;28;46309;-77
2022/12/29 03:32:23;;;;;;;0.73;0.70;;;17.10;53.10;;;;;;5066349;28;45335;-78
2022/12/29 03:34:50;;;;;;;0.40;0.40;;;17.10;53.10;;;;;;5066665;28;45137;-77
2022/12/29 03:37:19;;;;;;;0.82;0.40;;;17.10;53.10;;;;;;5066605;27;45315;-78
2022/12/29 03:39:46;;;;;;;0.52;0.52;;;17.10;53.10;;;;;;5066018;28;45672;-76
2022/12/29 03:42:14;;;;;;;0.60;0.60;;;17.10;53.10;;;;;;5065354;27;45342;-78
2022/12/29 03:44:42;;;;;;;1.25;0.70;;;17.10;53.10;;;;;;5066055;28;45255;-78
2022/12/29 03:47:11;;;;;;;0.77;0.70;;;17.10;53.10;;;;;;5066074;27;45224;-78
2022/12/29 03:49:39;;;;;;;0.50;0.50;;;17.10;53.10;;;;;;5065772;27;45461;-78
2022/12/29 03:52:06;;;;;;;0.70;0.70;;;17.10;53.00;;;;;;5065641;27;45245;-77
2022/12/29 03:54:32;;;;;;;1.13;0.63;;;17.10;53.10;;;;;;5065883;27;45251;-77
2022/12/29 03:56:59;;;;;;;0.60;0.60;;;17.10;53.10;;;;;;5066033;27;45338;-77
2022/12/29 03:59:26;;;;;;;0.85;0.50;;;17.10;53.10;;;;;;5065819;28;46628;-77
2022/12/29 04:01:53;;;;;;;1.15;0.70;;;17.10;53.10;;;;;;5065663;28;45218;-78
2022/12/29 04:04:20;;;;;;;0.65;0.60;;;17.10;53.10;;;;;;5065817;28;45229;-77
2022/12/29 04:06:48;;;;;;;0.80;0.80;;;17.10;53.10;;;;;;5065741;27;45324;-78
2022/12/29 04:09:15;;;;;;;0.50;0.50;;;17.10;53.10;;;;;;5065471;28;46612;-78
2022/12/29 04:11:42;;;;;;;0.70;0.70;;;17.10;53.10;;;;;;5065507;27;45297;-77
2022/12/29 04:14:08;;;;;;;0.50;0.50;;;17.10;53.10;;;;;;5065782;28;45108;-78
2022/12/29 04:16:38;;;;;;;1.40;0.68;;;17.10;53.10;;;;;;5065809;27;45177;-78
2022/12/29 04:19:05;;;;;;;0.80;0.60;;;17.10;53.10;;;;;;5065405;27;46265;-78
2022/12/29 04:21:32;;;;;;;0.70;0.70;;;17.10;53.00;;;;;;5062840;28;45140;-77
2022/12/29 04:24:00;;;;;;;1.15;0.60;;;17.10;53.10;;;;;;5065387;27;45182;-77
2022/12/29 04:26:27;;;;;;;2.25;0.80;;;17.10;53.00;;;;;;5064535;28;45332;-78
2022/12/29 04:28:54;;;;;;;0.70;0.70;;;17.10;53.10;;;;;;5065248;27;46659;-78
2022/12/29 04:31:20;;;;;;;0.70;0.70;;;17.10;53.60;;;;;;5065325;27;45351;-78
2022/12/29 04:33:47;;;;;;;0.63;0.63;;;17.10;53.10;;;;;;5065039;28;45259;-78
2022/12/29 04:36:14;;;;;;;0.60;0.45;;;17.10;53.10;;;;;;5065596;28;45193;-78
2022/12/29 04:38:41;;;;;;;0.70;0.70;;;17.10;53.10;;;;;;5065285;27;45304;-77
2022/12/29 04:41:09;;;;;;;0.60;0.60;;;17.10;53.10;;;;;;5065439;27;45349;-77
2022/12/29 04:43:36;;;;;;;0.60;0.60;;;17.10;53.10;;;;;;5065464;27;45300;-77
2022/12/29 04:46:03;;;;;;;0.65;0.57;;;17.10;53.10;;;;;;5065812;27;45231;-77
2022/12/29 04:48:29;;;;;;;0.70;0.70;;;17.10;53.10;;;;;;5065038;28;45461;-77
2022/12/29 04:50:56;;;;;;;0.75;0.75;;;17.10;53.10;;;;;;5065166;28;45177;-77
2022/12/29 04:53:23;;;;;;;1.05;0.60;;;17.10;53.10;;;;;;5065284;27;45443;-77
2022/12/29 04:55:50;;;;;;;0.70;0.70;;;17.10;53.00;;;;;;5065370;28;45336;-78
2022/12/29 04:58:18;;;;;;;0.85;0.70;;;17.10;53.10;;;;;;5064777;27;45433;-77
2022/12/29 05:00:45;;;;;;;0.60;0.60;;;17.10;53.10;;;;;;5064972;28;45174;-78
2022/12/29 05:03:12;;;;;;;0.60;0.60;;;17.10;53.10;;;;;;5065320;28;45373;-77
2022/12/29 05:05:39;;;;;;;0.65;0.60;;;17.10;53.10;;;;;;5065147;27;45317;-77
2022/12/29 05:08:06;;;;;;;0.50;0.50;;;17.10;53.00;;;;;;5063874;27;45338;-77
2022/12/29 05:10:33;;;;;;;1.00;0.60;;;17.10;53.00;;;;;;5064844;27;45177;-78
2022/12/29 05:13:00;;;;;;;0.70;0.70;;;17.10;53.00;;;;;;5064914;27;45317;-78
2022/12/29 05:15:28;;;;;;;0.60;0.60;;;17.10;53.10;;;;;;5065103;27;45176;-78
2022/12/29 05:17:55;;;;;;;0.70;0.70;;;17.10;53.00;;;;;;5065041;28;46539;-78
2022/12/29 05:20:22;;;;;;;0.50;0.50;;;17.10;53.00;;;;;;5064599;28;45298;-78
2022/12/29 05:22:49;;;;;;;0.60;0.60;;;17.10;53.00;;;;;;5064788;27;45306;-78
2022/12/29 05:25:16;;;;;;;0.70;0.70;;;17.10;53.00;;;;;;5064837;27;45134;-77
2022/12/29 05:27:42;;;;;;;0.68;0.60;;;17.10;53.00;;;;;;5064162;28;45298;-78
2022/12/29 05:30:10;;;;;;;1.02;0.73;;;17.10;53.00;;;;;;5064489;28;45307;-77
2022/12/29 05:32:39;;;;;;;1.15;0.80;;;17.10;53.00;;;;;;5064617;28;45372;-77
2022/12/29 05:35:06;;;;;;;0.52;0.52;;;17.10;53.60;;;;;;5064999;28;45450;-77
2022/12/29 05:37:33;;;;;;;0.68;0.68;;;17.10;53.10;;;;;;5064976;28;45344;-78
2022/12/29 05:40:00;;;;;;;0.60;0.60;;;17.10;53.00;;;;;;5064488;28;45241;-77
2022/12/29 05:42:27;;;;;;;0.63;0.63;;;17.10;53.00;;;;;;5064539;27;45341;-77
2022/12/29 05:44:54;;;;;;;0.60;0.60;;;17.10;53.00;;;;;;5063883;28;45398;-78
2022/12/29 05:47:20;;;;;;;0.50;0.50;;;17.10;53.00;;;;;;5064159;27;45239;-77
2022/12/29 05:49:49;;;;;;;0.95;0.80;;;17.10;52.90;;;;;;5064164;28;45203;-78
2022/12/29 05:52:15;;;;;;;0.70;0.70;;;17.10;52.90;;;;;;5063664;27;45392;-78
2022/12/29 05:54:42;;;;;;;0.60;0.60;;;17.10;53.00;;;;;;5064460;28;45250;-78
2022/12/29 05:57:09;;;;;;;1.50;0.70;;;17.10;53.00;;;;;;5064170;27;45157;-77
2022/12/29 05:59:36;;;;;;;1.08;0.75;;;17.10;53.00;;;;;;5064271;27;45216;-78
2022/12/29 06:02:03;;;;;;;0.60;0.60;;;17.20;53.00;;;;;;5064144;27;45301;-78
2022/12/29 06:04:30;;;;;;;0.80;0.70;;;17.10;53.00;;;;;;5064324;28;45313;-77
2022/12/29 06:06:58;;;;;;;0.68;0.68;;;17.20;53.00;;;;;;5063775;28;45620;-77
2022/12/29 06:09:25;;;;;;;0.80;0.80;;;17.20;53.00;;;;;;5064033;27;45219;-77
2022/12/29 06:11:51;;;;;;;0.68;0.68;;;17.20;53.00;;;;;;5063980;28;45293;-77
2022/12/29 06:14:18;;;;;;;0.70;0.70;;;17.20;53.00;;;;;;5064230;27;45330;-77
2022/12/29 06:16:45;;;;;;;0.70;0.70;;;17.20;53.00;;;;;;5063847;28;45540;-77
2022/12/29 06:19:12;;;;;;;0.60;0.60;;;17.20;53.00;;;;;;5063993;28;45243;-77
2022/12/29 06:21:39;;;;;;;0.70;0.60;;;17.20;52.90;;;;;;5064053;28;45226;-77
2022/12/29 06:24:07;;;;;;;0.68;0.68;;;17.20;53.00;;;;;;5064015;28;45249;-77
2022/12/29 06:26:34;;;;;;;0.80;0.80;;;17.20;53.00;;;;;;5063614;28;46376;-77
2022/12/29 06:29:02;;;;;;;0.93;0.70;;;17.20;53.00;;;;;;5063517;27;45262;-78
2022/12/29 06:31:29;;;;;;;0.98;0.60;;;17.20;53.00;;;;;;5063826;28;45207;-77
2022/12/29 06:33:56;;;;;;;1.15;0.70;;;17.20;53.00;;;;;;5063169;27;45225;-77
2022/12/29 06:36:23;;;;;;;1.13;0.93;;;17.20;52.90;;;;;;5063267;28;46607;-77
2022/12/29 06:38:52;;;;;;;0.60;0.60;;;17.20;52.90;;;;;;5063499;27;45317;-77
2022/12/29 06:41:20;;;;;;;0.93;0.80;;;17.10;52.90;;;;;;5063786;27;45350;-77
2022/12/29 06:43:47;;;;;;;0.63;0.63;;;17.20;52.90;;;;;;5063804;27;45184;-77
2022/12/29 06:46:14;;;;;;;0.88;0.60;;;17.10;52.80;;;;;;5063416;27;45479;-77
2022/12/29 06:48:41;;;;;;;0.50;0.50;;;17.10;52.90;;;;;;5063283;27;45403;-77
2022/12/29 06:51:08;;;;;;;0.73;0.73;;;17.20;52.80;;;;;;5063613;28;45379;-78
2022/12/29 06:53:35;;;;;;;0.77;0.77;;;17.20;52.90;;;;;;5063581;27;45243;-77
2022/12/29 06:56:02;;;;;;;0.60;0.60;;;17.20;52.90;;;;;;5063518;27;45319;-77
2022/12/29 06:58:30;;;;;;;1.88;0.90;;;17.20;52.80;;;;;;5066332;27;45188;-77
2022/12/29 07:00:57;;;;;;;0.98;0.88;;;17.20;52.80;;;;;;5066398;28;45316;-77
2022/12/29 07:03:25;;;;;;;0.70;0.70;;;17.20;52.80;;;;;;5066505;28;45342;-77
2022/12/29 07:05:51;;;;;;;2.05;0.80;;;17.20;52.80;;;;;;5066606;27;45279;-77
2022/12/29 07:08:18;;;;;;;0.93;0.88;;;17.20;52.80;;;;;;5066309;28;45249;-77
2022/12/29 07:10:45;;;;;;;0.73;0.70;;;17.20;52.80;;;;;;5066754;27;45327;-78
2022/12/29 07:13:12;;;;;;;0.70;0.70;;;17.20;52.80;;;;;;5066485;27;45227;-77
2022/12/29 07:15:40;;;;;;;1.38;0.85;;;17.20;52.80;;;;;;5065989;27;45407;-77
2022/12/29 07:18:07;;;;;;;0.95;0.70;;;17.20;52.80;;;;;;5065650;28;45221;-78
2022/12/29 07:20:34;;;;;;;0.85;0.80;;;17.20;52.80;;;;;;5066234;27;45178;-77
2022/12/29 07:23:00;;;;;;;0.60;0.60;;;17.20;52.80;;;;;;5066433;27;45401;-78
2022/12/29 07:25:28;;;;;;;0.73;0.73;;;17.20;52.80;;;;;;5066068;28;45455;-77
2022/12/29 07:27:55;;;;;;;0.80;0.80;;;17.20;52.80;;;;;;5065931;27;45290;-77
2022/12/29 07:30:22;;;;;;;0.80;0.80;;;17.20;52.80;;;;;;5066059;27;45256;-78
2022/12/29 07:32:50;;;;;;;0.75;0.73;;;17.20;52.80;;;;;;5066043;28;45318;-77
2022/12/29 07:35:17;;;;;;;0.98;0.98;;;17.20;52.80;;;;;;5065870;27;45534;-77
2022/12/29 07:37:44;;;;;;;1.05;0.98;;;17.20;52.70;;;;;;5065802;28;45319;-77
2022/12/29 07:40:11;;;;;;;2.65;1.10;;;17.20;52.80;;;;;;5065963;28;45185;-77
2022/12/29 07:42:38;;;;;;;1.30;1.20;;;17.20;52.80;;;;;;5066074;27;45417;-78
2022/12/29 07:45:06;;;;;;;1.70;1.60;;;17.20;52.80;;;;;;5065706;27;45489;-77
2022/12/29 07:47:33;;;;;;;1.75;1.65;;;17.20;52.70;;;;;;5065650;28;45240;-77
2022/12/29 07:50:01;;;;;;;2.10;1.60;;;17.20;52.70;;;;;;5065783;27;45335;-77
2022/12/29 07:52:28;;;;;;;2.80;1.75;;;17.20;52.90;;;;;;5065606;27;45259;-77
2022/12/29 07:54:54;;;;;;;2.08;1.60;;;17.20;52.80;;;;;;5065586;27;46427;-78
2022/12/29 07:57:21;;;;;;;1.92;1.58;;;17.20;52.80;;;;;;5065640;28;45412;-77
2022/12/29 07:59:48;;;;;;;2.30;2.00;;;17.20;52.80;;;;;;5065379;27;45302;-76
2022/12/29 08:02:15;;;;;;;3.33;2.08;;;17.20;52.80;;;;;;5065089;27;45403;-77
2022/12/29 08:04:42;;;;;;;2.15;2.00;;;17.20;52.90;;;;;;5065602;28;46411;-77
2022/12/29 08:07:10;;;;;;;2.88;2.20;;;17.30;52.90;;;;;;5065537;27;45249;-77
2022/12/29 08:09:36;;;;;;;3.45;2.35;;;17.20;52.90;;;;;;5064993;27;45302;-77
2022/12/29 08:12:03;;;;;;;3.80;2.10;;;17.20;52.80;;;;;;5065456;27;45328;-76
2022/12/29 08:14:30;;;;;;;6.43;2.28;;;17.20;53.10;;;;;;5061822;27;47533;-76
2022/12/29 08:16:57;;;;;;;3.85;2.17;;;17.30;53.60;;;;;;5058473;27;45527;-72
2022/12/29 08:19:24;;;;;;;4.53;2.25;;;17.30;53.20;;;;;;5065286;27;45205;-75
2022/12/29 08:21:51;;;;;;;2.60;2.40;;;17.40;53.00;;;;;;5066208;28;45487;-78
2022/12/29 08:24:19;;;;;;;5.95;2.60;;;17.40;52.90;;;;;;5065254;28;46662;-73
2022/12/29 08:26:46;;;;;;;3.75;2.15;;;17.40;52.90;;;;;;5061413;27;45418;-76
2022/12/29 08:29:13;;;;;;;4.30;2.47;;;17.50;52.90;;;;;;5065322;28;45273;-79
2022/12/29 08:31:40;;;;;;;4.82;2.30;;;17.50;52.60;;;;;;5065342;27;45311;-74
2022/12/29 08:34:07;;;;;;;5.55;2.65;;;17.50;52.90;;;;;;5065089;27;45390;-73
2022/12/29 08:36:34;;;;;;;6.03;3.28;;;17.50;52.80;;;;;;5063343;28;45549;-75
2022/12/29 08:39:01;;;;;;;2.78;2.40;;;17.60;52.60;;;;;;5066407;28;45287;-77
2022/12/29 08:41:29;;;;;;;4.53;2.72;;;17.60;52.70;;;;;;5065127;28;45402;-78
2022/12/29 08:43:56;;;;;;;7.00;2.75;;;17.60;52.70;;;;;;5064270;27;45579;-73
2022/12/29 08:46:23;;;;;;;3.70;2.65;;;17.70;52.80;;;;;;5064100;27;45288;-75
2022/12/29 08:48:50;;;;;;;3.50;2.85;;;17.80;52.90;;;;;;5064455;28;45245;-74
2022/12/29 08:51:17;;;;;;;6.75;3.28;;;17.80;52.90;;;;;;5065481;28;45184;-79
2022/12/29 08:53:44;;;;;;;4.53;3.20;;;17.80;52.70;;;;;;5064146;28;45358;-72
2022/12/29 08:56:11;;;;;;;10.75;3.95;;;17.80;52.70;;;;;;5089395;27;45493;-77
2022/12/29 08:58:40;;;;;;;5.90;5.10;;;17.90;52.60;;;;;;5073444;28;45471;-72
2022/12/29 09:01:07;;;;;;;11.02;6.00;;;17.90;52.60;;;;;;5118614;27;45249;-78
2022/12/29 09:03:33;;;;;;;6.68;5.70;;;18.00;52.60;;;;;;5106161;27;45444;-76
2022/12/29 09:06:00;;;;;;;9.80;5.82;;;18.00;52.60;;;;;;5069953;27;45269;-74
2022/12/29 09:08:27;;;;;;;9.30;7.35;;;18.10;52.50;;;;;;5101480;27;45499;-71
2022/12/29 09:10:54;;;;;;;9.18;7.40;;;18.10;52.40;;;;;;5117304;27;45385;-74
2022/12/29 09:13:21;;;;;;;10.73;8.50;;;18.10;52.90;;;;;;5133916;27;45439;-75
2022/12/29 09:15:49;;;;;;;12.70;10.23;;;18.20;53.30;;;;;;5084060;27;45322;-73
2022/12/29 09:18:16;;;;;;;13.18;10.80;;;18.20;52.50;;;;;;5090078;27;45370;-74
2022/12/29 09:20:43;;;;;;;12.48;10.77;;;18.30;52.50;;;;;;5078776;27;45481;-74
2022/12/29 09:23:10;;;;;;;15.75;11.52;;;18.40;52.30;;;;;;5083186;27;46606;-73
2022/12/29 09:25:37;;;;;;;16.92;8.18;;;18.40;52.20;;;;;;5074291;27;45301;-75
2022/12/29 09:28:07;;;;;;;12.00;10.20;;;18.50;52.20;;;;;;5103676;27;45425;-73
2022/12/29 09:30:34;;;;;;;18.30;10.32;;;18.60;52.10;;;;;;5123243;27;45481;-74
2022/12/29 09:33:02;;;;;;;17.92;10.35;;;18.60;51.90;;;;;;5137370;27;45322;-72
2022/12/29 09:35:29;;;;;;;15.48;10.25;;;18.70;51.80;;;;;;5149531;27;45353;-73
2022/12/29 09:37:56;;;;;;;13.93;10.45;;;18.70;51.60;;;;;;5081089;27;45418;-74
2022/12/29 09:40:29;;;;;;;17.65;10.38;;;18.80;51.60;;;;;;5170751;27;45240;-73
2022/12/29 09:43:11;;;;;;;16.77;10.93;;;18.90;51.50;;;;;;5124411;27;45450;-73
2022/12/29 09:45:41;;;;;;;13.02;10.43;;;18.90;51.30;;;;;;5142096;27;45309;-71
2022/12/29 09:48:13;;;;;;;14.98;10.32;;;19.00;51.20;;;;;;5069435;27;45345;-73
2022/12/29 09:50:41;;;;;;;11.85;9.13;;;19.10;51.20;;;;;;5065158;28;45204;-71
2022/12/29 09:53:11;;;;;;;12.25;8.20;;;19.10;51.00;;;;;;5120518;27;45606;-75
2022/12/29 09:55:39;;;;;;;10.20;6.95;;;19.20;51.30;;;;;;5096102;27;45398;-74
2022/12/29 09:58:11;;;;;;;8.55;6.45;;;19.20;51.10;;;;;;5071222;27;45163;-74
2022/12/29 10:00:39;;;;;;;8.52;5.70;;;19.20;50.70;;;;;;5110801;27;45412;-74
2022/12/29 10:03:10;;;;;;;8.70;5.43;;;19.20;50.70;;;;;;5085118;27;45453;-74
2022/12/29 10:05:42;;;;;;;12.50;5.72;;;19.20;50.60;;;;;;5141091;27;45406;-73
2022/12/29 10:08:21;;;;;;;11.38;5.72;;;19.20;50.70;;;;;;5068672;27;45398;-74
2022/12/29 10:10:51;;;;;;;10.13;5.78;;;19.20;50.70;;;;;;5065953;28;45346;-76
2022/12/29 10:13:28;;;;;;;11.85;5.60;;;19.20;50.90;;;;;;5065447;28;45439;-76
2022/12/29 10:16:00;;;;;;;10.68;5.45;;;19.20;50.90;;;;;;5147800;27;45279;-77
2022/12/29 10:18:45;;;;;;;12.27;5.43;;;19.20;50.80;;;;;;5090503;27;45366;-75
2022/12/29 10:21:18;;;;;;;11.10;5.10;;;19.20;50.90;;;;;;5117749;27;45334;-77
2022/12/29 10:23:46;;;;;;;8.93;4.57;;;19.20;50.90;;;;;;5067496;28;45281;-72
2022/12/29 10:26:14;;;;;;;8.05;5.20;;;19.30;50.90;;;;;;5154752;27;45314;-75
2022/12/29 10:28:43;;;;;;;13.20;4.70;;;19.30;51.10;;;;;;5066780;27;45424;-75
2022/12/29 10:31:13;;;;;;;8.02;5.53;;;19.30;51.00;;;;;;5124936;27;45613;-76
2022/12/29 10:33:42;;;;;;;12.15;5.65;;;19.30;50.60;;;;;;5141766;27;45353;-78
2022/12/29 10:36:16;;;;;;;15.02;5.68;;;19.40;50.70;;;;;;5077794;27;45322;-73
2022/12/29 10:38:47;;;;;;;16.58;5.22;;;19.40;50.70;;;;;;5109819;27;45223;-75
2022/12/29 10:41:16;;;;;;;10.20;4.45;;;19.40;50.90;;;;;;5124883;27;45629;-77
2022/12/29 10:43:48;;;;;;;9.07;5.13;;;19.30;50.80;;;;;;5152434;27;45299;-74
2022/12/29 10:46:17;;;;;;;16.80;6.88;;;19.40;51.10;;;;;;5078286;27;45287;-75
2022/12/29 10:48:47;;;;;;;13.05;8.23;;;19.50;51.10;;;;;;5071154;27;45474;-75
2022/12/29 10:51:20;;;;;;;23.73;9.50;;;19.50;51.00;;;;;;5132126;27;45524;-78
2022/12/29 10:53:48;;;;;;;11.25;6.53;;;19.60;51.00;;;;;;5104738;27;45424;-75
2022/12/29 10:56:18;;;;;;;7.43;4.78;;;19.60;50.50;;;;;;5066032;28;45333;-79
2022/12/29 10:58:45;;;;;;;7.20;4.78;;;19.60;50.50;;;;;;5155171;27;45428;-77
2022/12/29 11:01:12;;;;;;;6.38;4.55;;;19.60;50.50;;;;;;5092687;27;44674;-76
2022/12/29 11:04:00;;;;;;;8.98;5.13;;;19.70;50.50;;;;;;5103499;27;46589;-74
2022/12/29 11:06:30;;;;;;;10.35;7.05;;;19.60;50.60;;;;;;5115828;27;45364;-73
2022/12/29 11:08:58;;;;;;;11.80;7.50;;;19.70;50.50;;;;;;5071044;28;45197;-76
2022/12/29 11:11:26;;;;;;;11.93;8.88;;;19.70;51.30;;;;;;5074860;27;45365;-70
2022/12/29 11:13:57;;;;;;;17.25;8.32;;;19.80;50.60;;;;;;5138099;27;46658;-75
2022/12/29 11:16:30;;;;;;;8.48;5.82;;;19.80;50.40;;;;;;5115077;27;45834;-75
2022/12/29 11:18:57;;;;;;;10.45;5.50;;;19.80;50.00;;;;;;5074584;27;45272;-77
2022/12/29 11:21:32;;;;;;;16.15;12.57;;;19.90;50.20;;;;;;5068911;28;45431;-74
2022/12/29 11:24:00;;;;;;;24.83;19.45;;;19.90;50.30;;;;;;5103894;27;46685;-74
2022/12/29 11:26:27;;;;;;;35.17;25.50;;;19.90;50.30;;;;;;5110935;27;45259;-75
2022/12/29 11:29:18;;;;;;;34.65;18.25;;;20.00;50.30;;;;;;5072130;28;45218;-76
2022/12/29 11:31:46;;;;;;;20.35;11.32;;;20.00;50.20;;;;;;5093808;27;45221;-79
2022/12/29 11:34:18;;;;;;;27.95;20.70;;;20.10;49.80;;;;;;5120413;27;45378;-78
2022/12/29 11:36:46;;;;;;;34.28;26.48;;;20.10;49.90;;;;;;5095620;27;45301;-74
2022/12/29 11:39:27;;;;;;;63.88;50.22;;;20.10;50.00;;;;;;5070831;27;45238;-76
2022/12/29 11:41:56;;;;;;;64.15;48.42;;;20.10;49.70;;;;;;5111105;27;45310;-77
2022/12/29 11:44:22;;;;;;;52.25;40.28;;;20.20;49.70;;;;;;5111917;27;45744;-76
2022/12/29 11:46:50;;;;;;;44.53;33.53;;;20.20;49.60;;;;;;5112103;27;45244;-75
2022/12/29 11:49:20;;;;;;;27.60;22.83;;;20.20;49.70;;;;;;5066784;27;45253;-78
2022/12/29 11:51:49;;;;;;;25.88;17.88;;;20.30;49.70;;;;;;5066671;28;45337;-77
2022/12/29 11:54:19;;;;;;;42.90;17.10;;;20.30;49.70;;;;;;5066554;27;48154;-74
2022/12/29 11:56:46;;;;;;;27.90;15.57;;;20.30;49.70;;;;;;5063088;28;45378;-76
2022/12/29 11:59:40;;;;;;;21.52;14.20;;;20.30;49.40;;;;;;5065545;28;45475;-77
2022/12/29 12:02:36;;;;;;;16.48;12.13;;;20.30;49.40;;;;;;5065942;28;45415;-76
2022/12/29 12:05:06;;;;;;;17.23;12.70;;;20.20;49.30;;;;;;5066526;27;46699;-75
2022/12/29 12:07:40;;;;;;;17.10;11.40;;;20.20;49.60;;;;;;5062785;28;45637;-76
2022/12/29 12:10:09;;;;;;;19.38;10.50;;;20.20;49.50;;;;;;5067512;27;45153;-75
2022/12/29 12:12:36;;;;;;;15.95;13.02;;;20.10;49.70;;;;;;5109927;27;45305;-77
2022/12/29 12:15:04;;;;;;;29.58;23.05;;;20.20;50.10;;;;;;5070485;27;45478;-75
2022/12/29 12:17:37;;;;;;;43.70;27.83;;;20.20;50.00;;;;;;5105329;27;45195;-76
2022/12/29 12:20:08;;;;;;;34.03;21.92;;;20.30;50.10;;;;;;5069586;27;45362;-77
2022/12/29 12:22:37;;;;;;;24.33;18.15;;;20.30;49.90;;;;;;5154952;27;45399;-74
2022/12/29 12:25:06;;;;;;;21.73;15.63;;;20.40;49.90;;;;;;5058411;27;45552;-75
2022/12/29 12:27:39;;;;;;;23.25;14.23;;;20.40;49.60;;;;;;5062739;28;45388;-79
2022/12/29 12:30:11;;;;;;;13.98;12.40;;;20.30;49.50;;;;;;5069503;27;45274;-76
2022/12/29 12:32:42;;;;;;;15.30;12.07;;;20.40;49.30;;;;;;5156809;27;45271;-78
2022/12/29 12:35:12;;;;;;;15.65;13.75;;;20.40;49.30;;;;;;5093127;27;45654;-83
2022/12/29 12:37:54;;;;;;;18.20;13.77;;;20.40;50.10;;;;;;5101937;27;45406;-75
2022/12/29 12:40:35;;;;;;;19.77;11.48;;;20.50;50.00;;;;;;5067737;27;45478;-74
2022/12/29 12:43:14;;;;;;;26.88;12.60;;;20.50;49.60;;;;;;5068460;27;45177;-76
2022/12/29 12:45:48;;;;;;;15.68;11.10;;;20.50;49.40;;;;;;5056730;28;45298;-77
2022/12/29 12:48:29;;;;;;;20.20;11.25;;;20.50;49.20;;;;;;5062215;28;45319;-79
2022/12/29 12:50:59;;;;;;;15.55;8.65;;;20.60;49.20;;;;;;5066671;28;45189;-80
2022/12/29 12:53:36;;;;;;;14.23;7.43;;;20.50;48.90;;;;;;5066342;27;45399;-81
2022/12/29 12:56:12;;;;;;;6.50;4.72;;;20.50;48.90;;;;;;5056920;27;45490;-74
2022/12/29 12:58:42;;;;;;;9.68;4.88;;;20.50;48.50;;;;;;5065032;28;45378;-80
2022/12/29 13:01:17;;;;;;;14.07;4.07;;;20.40;48.70;;;;;;5065519;27;45408;-81
2022/12/29 13:03:54;;;;;;;8.23;3.10;;;20.40;49.30;;;;;;5065122;27;45272;-80
2022/12/29 13:06:25;;;;;;;4.82;2.67;;;20.40;48.40;;;;;;5064964;28;47273;-80
2022/12/29 13:09:29;;;;;;;3.13;2.45;;;20.30;48.30;;;;;;5065621;27;45191;-80
2022/12/29 13:12:03;;;;;;;2.45;2.15;;;20.20;48.30;;;;;;5086919;28;45306;-80
2022/12/29 13:14:37;;;;;;;3.67;2.05;;;20.20;48.30;;;;;;5068911;28;45454;-80
2022/12/29 13:17:06;;;;;;;2.42;1.58;;;20.10;48.30;;;;;;5065410;27;45263;-80
2022/12/29 13:19:35;;;;;;;2.70;1.63;;;20.10;48.40;;;;;;5066153;27;45237;-80
2022/12/29 13:22:05;;;;;;;2.55;1.67;;;20.00;48.40;;;;;;5065206;28;45251;-80
2022/12/29 13:24:39;;;;;;;1.88;1.67;;;19.90;48.50;;;;;;5065154;27;45181;-80
2022/12/29 13:27:10;;;;;;;3.92;1.58;;;19.90;48.70;;;;;;5064925;27;45215;-80
2022/12/29 13:29:40;;;;;;;2.75;1.40;;;19.80;48.60;;;;;;5065434;28;45302;-77